Time;durP1;ratioP1;P1;durP2;ratioP2;P2;SDS_P1;SDS_P2;PMS_P1;PMS_P2;Temp;Humidity;BMP_temperature;BMP_pressure;BME280_temperature;BME280_humidity;BME280_pressure;Samples;Min_cycle;Max_cycle;Signal;HPM_P1;HPM_P2
2021/12/29 00:00:12;;;;;;;5.53;4.90;;;;;;;8.64;100.00;98378.78;4888289;29;20023;-82
2021/12/29 00:02:42;;;;;;;6.40;4.93;;;;;;;8.64;100.00;98401.94;4890101;29;20040;-81
2021/12/29 00:05:10;;;;;;;5.95;5.35;;;;;;;8.63;100.00;98402.94;4904979;29;20032;-82
2021/12/29 00:07:39;;;;;;;5.88;5.28;;;;;;;8.63;100.00;98410.94;4889272;29;20032;-81
2021/12/29 00:10:08;;;;;;;6.45;5.40;;;;;;;8.64;100.00;98413.44;4889997;29;20030;-81
2021/12/29 00:12:41;;;;;;;;;;;;;;;8.65;100.00;98415.09;4890635;29;20035;-82
2021/12/29 00:15:11;;;;;;;6.80;5.43;;;;;;;8.64;100.00;98420.59;4890964;29;19919;-82
2021/12/29 00:17:43;;;;;;;6.10;5.28;;;;;;;8.64;100.00;98415.25;4890485;29;20047;-81
2021/12/29 00:20:11;;;;;;;7.80;5.90;;;;;;;8.63;100.00;98418.91;4890550;29;20040;-81
2021/12/29 00:22:39;;;;;;;5.68;4.80;;;;;;;8.63;100.00;98417.09;4890424;29;20032;-80
2021/12/29 00:25:07;;;;;;;7.43;6.50;;;;;;;8.66;100.00;98416.75;4908990;29;20044;-80
2021/12/29 00:27:34;;;;;;;6.22;5.63;;;;;;;8.64;100.00;98415.25;4909553;29;20282;-80
2021/12/29 00:30:02;;;;;;;6.80;5.85;;;;;;;8.62;100.00;98428.75;4893213;29;20031;-82
2021/12/29 00:32:30;;;;;;;6.28;5.65;;;;;;;8.63;100.00;98426.91;4894131;29;20043;-80
2021/12/29 00:34:57;;;;;;;6.97;5.82;;;;;;;8.65;100.00;98433.75;4893594;29;20031;-82
2021/12/29 00:37:25;;;;;;;6.95;5.78;;;;;;;8.63;100.00;98451.72;4893778;29;20911;-80
2021/12/29 00:39:54;;;;;;;6.88;5.80;;;;;;;8.63;100.00;98456.22;4893698;29;20052;-80
2021/12/29 00:42:22;;;;;;;6.18;5.57;;;;;;;8.64;100.00;98472.03;4893564;29;20118;-81
2021/12/29 00:44:51;;;;;;;7.20;5.55;;;;;;;8.65;100.00;98480.88;4893461;29;20032;-82
2021/12/29 00:47:19;;;;;;;7.03;5.38;;;;;;;8.64;100.00;98496.03;4893837;29;20102;-81
2021/12/29 00:49:49;;;;;;;7.53;5.80;;;;;;;8.62;100.00;98489.19;4893248;29;20119;-83
2021/12/29 00:52:16;;;;;;;6.80;5.68;;;;;;;8.62;100.00;98489.19;4893443;29;20050;-81
2021/12/29 00:54:44;;;;;;;7.90;5.88;;;;;;;8.58;100.00;98486.03;4893629;29;20047;-81
2021/12/29 00:57:12;;;;;;;7.45;5.85;;;;;;;8.59;100.00;98493.00;4893611;29;20046;-81
2021/12/29 00:59:41;;;;;;;9.43;6.20;;;;;;;8.62;100.00;98497.19;4908606;29;20028;-80
2021/12/29 01:02:11;;;;;;;8.75;6.45;;;;;;;8.61;100.00;98499.00;4892486;29;20036;-81
2021/12/29 01:04:39;;;;;;;6.70;5.85;;;;;;;8.61;100.00;98490.19;4893188;29;20043;-80
2021/12/29 01:07:08;;;;;;;6.75;5.63;;;;;;;8.59;100.00;98492.19;4893163;29;20042;-81
2021/12/29 01:09:38;;;;;;;6.78;6.03;;;;;;;8.59;100.00;98501.00;4893094;29;20039;-81
2021/12/29 01:12:10;;;;;;;8.45;6.18;;;;;;;8.59;100.00;98519.66;4908307;29;20040;-81
2021/12/29 01:14:43;;;;;;;9.02;6.18;;;;;;;8.58;100.00;98518.00;4893304;29;20034;-80
2021/12/29 01:17:13;;;;;;;8.07;6.85;;;;;;;8.57;100.00;98524.31;4894034;29;20039;-81
2021/12/29 01:19:42;;;;;;;8.98;6.65;;;;;;;8.57;100.00;98532.31;4892844;29;20028;-80
2021/12/29 01:22:13;;;;;;;9.13;6.40;;;;;;;8.58;100.00;98533.16;4892798;29;20040;-82
2021/12/29 01:24:46;;;;;;;7.82;6.32;;;;;;;8.59;100.00;98532.16;4907772;29;20027;-81
2021/12/29 01:27:14;;;;;;;9.75;6.47;;;;;;;8.59;100.00;98521.50;4892988;29;20099;-81
2021/12/29 01:29:46;;;;;;;9.98;6.55;;;;;;;8.60;100.00;98523.16;4892837;29;20191;-81
2021/12/29 01:32:15;;;;;;;7.13;6.18;;;;;;;8.57;100.00;98539.47;4907355;29;20058;-81
2021/12/29 01:34:45;;;;;;;8.63;6.35;;;;;;;8.58;100.00;98546.47;4907289;29;20035;-82
2021/12/29 01:37:18;;;;;;;8.23;6.63;;;;;;;8.55;100.00;98554.78;4892486;29;20623;-80
2021/12/29 01:39:48;;;;;;;8.82;6.25;;;;;;;8.53;100.00;98557.59;4908172;29;20126;-82
2021/12/29 01:42:18;;;;;;;8.25;6.22;;;;;;;8.55;100.00;98570.75;4892285;29;20040;-81
2021/12/29 01:44:48;;;;;;;7.70;5.68;;;;;;;8.54;100.00;98587.75;4892722;29;20035;-82
2021/12/29 01:47:28;;;;;;;7.97;5.72;;;;;;;8.58;100.00;98599.75;4907443;29;20096;-82
2021/12/29 01:50:00;;;;;;;7.95;6.25;;;;;;;8.58;100.00;98597.09;4907923;29;20024;-81
2021/12/29 01:52:36;;;;;;;9.15;6.60;;;;;;;8.55;100.00;98605.41;4892236;29;20119;-81
2021/12/29 01:55:05;;;;;;;8.55;5.60;;;;;;;8.57;100.00;98616.72;4909075;29;20849;-82
2021/12/29 01:57:37;;;;;;;7.70;5.78;;;;;;;8.55;100.00;98616.88;4908005;29;20680;-81
2021/12/29 02:00:19;;;;;;;8.02;5.97;;;;;;;8.55;100.00;98627.56;4891560;29;20039;-81
2021/12/29 02:02:52;;;;;;;7.05;5.88;;;;;;;8.57;100.00;98628.22;4884182;29;20047;-82
2021/12/29 02:05:23;;;;;;;9.52;5.57;;;;;;;8.55;100.00;98624.88;4892252;29;20059;-82
2021/12/29 02:07:54;;;;;;;8.07;5.65;;;;;;;8.54;100.00;98639.19;4892309;29;20024;-81
2021/12/29 02:10:25;;;;;;;7.18;5.47;;;;;;;8.57;100.00;98640.72;4907340;29;20032;-82
2021/12/29 02:12:56;;;;;;;5.95;5.00;;;;;;;8.54;100.00;98649.84;4907755;29;20039;-80
2021/12/29 02:15:25;;;;;;;6.57;5.53;;;;;;;8.55;100.00;98648.03;4907444;29;20055;-81
2021/12/29 02:17:54;;;;;;;6.90;4.95;;;;;;;8.54;100.00;98649.03;4892137;29;20099;-80
2021/12/29 02:20:26;;;;;;;8.70;5.40;;;;;;;8.52;100.00;98649.19;4906920;29;20028;-81
2021/12/29 02:23:13;;;;;;;7.43;5.07;;;;;;;8.51;100.00;98648.34;4891970;29;20035;-82
2021/12/29 02:25:48;;;;;;;6.28;4.80;;;;;;;8.50;100.00;98646.63;4909638;29;20031;-81
2021/12/29 02:28:18;;;;;;;7.10;4.72;;;;;;;8.51;100.00;98650.13;4892181;29;20036;-81
2021/12/29 02:30:48;;;;;;;5.07;4.25;;;;;;;8.53;100.00;98653.50;4891324;29;20076;-81
2021/12/29 02:33:19;;;;;;;6.47;5.07;;;;;;;8.52;100.00;98666.00;4907142;29;20036;-82
2021/12/29 02:35:48;;;;;;;9.40;5.22;;;;;;;8.53;100.00;98661.50;4907289;29;20028;-81
2021/12/29 02:38:43;;;;;;;6.43;5.15;;;;;;;8.53;100.00;98656.19;4891812;29;20035;-81
2021/12/29 02:41:13;;;;;;;7.40;4.78;;;;;;;8.56;100.00;98657.69;4892328;29;20739;-81
2021/12/29 02:43:43;;;;;;;6.18;4.55;;;;;;;8.56;100.00;98647.03;4891342;29;20036;-81
2021/12/29 02:46:14;;;;;;;5.60;4.65;;;;;;;8.55;100.00;98653.34;4906216;29;20118;-82
2021/12/29 02:48:45;;;;;;;8.07;4.75;;;;;;;8.54;100.00;98660.50;4891334;29;20028;-82
2021/12/29 02:51:14;;;;;;;6.68;4.40;;;;;;;8.53;100.00;98656.19;4906891;29;20043;-81
2021/12/29 02:53:44;;;;;;;6.03;4.82;;;;;;;8.51;100.00;98645.69;4891331;29;20067;-81
2021/12/29 02:56:14;;;;;;;7.63;4.75;;;;;;;8.51;100.00;98652.81;4891364;29;20082;-83
2021/12/29 02:58:44;;;;;;;5.75;4.20;;;;;;;8.53;100.00;98658.84;4890974;29;20025;-82
2021/12/29 03:01:15;;;;;;;6.32;4.95;;;;;;;8.51;100.00;98679.44;4906352;29;20664;-80
2021/12/29 03:03:47;;;;;;;7.38;4.97;;;;;;;8.52;100.00;98678.47;4906682;29;20040;-81
2021/12/29 03:06:19;;;;;;;4.80;4.30;;;;;;;8.51;100.00;98682.97;4890950;29;20074;-81
2021/12/29 03:08:50;;;;;;;6.15;4.22;;;;;;;8.50;100.00;98694.59;4890951;29;20087;-81
2021/12/29 03:11:22;;;;;;;6.55;4.30;;;;;;;8.54;100.00;98691.66;4891014;29;20103;-81
2021/12/29 03:13:52;;;;;;;7.20;4.72;;;;;;;8.52;100.00;98689.13;4891365;29;20028;-82
2021/12/29 03:16:22;;;;;;;6.35;4.35;;;;;;;8.51;100.00;98698.97;4891204;29;20032;-81
2021/12/29 03:18:53;;;;;;;8.10;5.03;;;;;;;8.47;100.00;98702.06;4890898;29;20031;-81
2021/12/29 03:21:31;;;;;;;6.15;4.90;;;;;;;8.48;100.00;98703.72;4890757;29;20080;-81
2021/12/29 03:24:01;;;;;;;6.82;4.78;;;;;;;8.46;100.00;98713.72;4906615;29;20087;-82
2021/12/29 03:26:33;;;;;;;8.07;5.03;;;;;;;8.47;100.00;98704.72;4906456;29;20509;-81
2021/12/29 03:29:03;;;;;;;6.88;4.35;;;;;;;8.46;100.00;98698.56;4891343;29;20036;-81
2021/12/29 03:31:38;;;;;;;7.75;4.78;;;;;;;8.47;100.00;98694.06;4902107;29;20052;-82
2021/12/29 03:34:08;;;;;;;6.47;5.07;;;;;;;8.48;100.00;98696.56;4872293;29;20041;-81
2021/12/29 03:36:40;;;;;;;5.55;4.80;;;;;;;8.48;100.00;98704.56;4892767;29;20037;-83
2021/12/29 03:39:13;;;;;;;6.68;4.80;;;;;;;8.49;100.00;98710.75;4887490;29;20461;-81
2021/12/29 03:41:45;;;;;;;6.40;5.38;;;;;;;8.47;100.00;98710.06;4906248;29;20039;-81
2021/12/29 03:44:16;;;;;;;7.93;5.00;;;;;;;8.46;100.00;98717.22;4906912;29;20032;-81
2021/12/29 03:46:49;;;;;;;8.50;5.55;;;;;;;8.48;100.00;98722.38;4882895;29;20267;-82
2021/12/29 03:49:23;;;;;;;5.68;5.05;;;;;;;8.48;100.00;98715.22;4891017;29;20035;-82
2021/12/29 03:51:55;;;;;;;7.45;5.43;;;;;;;8.48;100.00;98717.06;4890571;29;20035;-82
2021/12/29 03:54:27;;;;;;;5.85;4.90;;;;;;;8.48;100.00;98728.56;4890892;29;20063;-81
2021/12/29 03:57:02;;;;;;;6.60;5.15;;;;;;;8.47;100.00;98732.22;4890673;29;20032;-81
2021/12/29 03:59:36;;;;;;;8.15;5.40;;;;;;;8.47;100.00;98734.03;4909747;29;20035;-83
2021/12/29 04:02:08;;;;;;;8.50;5.80;;;;;;;8.47;100.00;98750.03;4893740;29;20036;-81
2021/12/29 04:04:39;;;;;;;8.65;5.57;;;;;;;8.47;100.00;98742.03;4894437;29;20838;-82
2021/12/29 04:07:10;;;;;;;6.95;5.53;;;;;;;8.48;100.00;98752.53;4894008;29;20032;-82
2021/12/29 04:09:42;;;;;;;6.03;5.30;;;;;;;8.47;100.00;98758.00;4894593;29;20888;-81
2021/12/29 04:12:14;;;;;;;6.60;5.38;;;;;;;8.48;100.00;98757.84;4909366;29;20036;-81
2021/12/29 04:14:45;;;;;;;8.55;5.75;;;;;;;8.46;100.00;98761.66;4894317;29;20048;-81
2021/12/29 04:17:18;;;;;;;6.80;5.82;;;;;;;8.44;100.00;98772.47;4893621;29;20028;-81
2021/12/29 04:22:38;;;;;;;8.90;5.78;;;;;;;8.47;100.00;98779.31;4912032;29;20164;-80
2021/12/29 04:25:09;;;;;;;7.28;6.25;;;;;;;8.47;100.00;98779.31;4894174;29;20036;-81
2021/12/29 04:27:41;;;;;;;7.43;6.32;;;;;;;8.45;100.00;98778.63;4908999;29;20028;-81
2021/12/29 04:30:12;;;;;;;9.77;5.88;;;;;;;8.46;100.00;98775.81;4893069;29;20363;-81
2021/12/29 04:32:43;;;;;;;7.70;6.20;;;;;;;8.46;100.00;98775.81;4893837;29;20050;-83
2021/12/29 04:35:14;;;;;;;7.78;6.10;;;;;;;8.48;100.00;98789.00;4893596;29;20032;-82
2021/12/29 04:37:46;;;;;;;6.78;5.72;;;;;;;8.47;100.00;98779.31;4909100;29;20028;-83
2021/12/29 04:40:18;;;;;;;7.28;6.55;;;;;;;8.47;100.00;98784.66;4893463;29;20020;-80
2021/12/29 04:42:50;;;;;;;7.18;6.25;;;;;;;8.45;100.00;98790.13;4893627;29;20055;-80
2021/12/29 04:45:22;;;;;;;8.18;6.70;;;;;;;8.45;100.00;98807.94;4909102;29;20028;-83
2021/12/29 04:47:57;;;;;;;7.38;6.45;;;;;;;8.43;100.00;98805.44;4909357;29;20039;-82
2021/12/29 04:50:30;;;;;;;6.53;5.47;;;;;;;8.45;100.00;98802.63;4924588;29;20119;-82
2021/12/29 04:53:04;;;;;;;8.88;6.07;;;;;;;8.49;100.00;98809.31;4894477;29;20039;-81
2021/12/29 04:55:34;;;;;;;8.18;5.50;;;;;;;8.46;100.00;98813.13;4909067;29;20088;-81
2021/12/29 04:58:06;;;;;;;7.00;5.30;;;;;;;8.46;100.00;98809.63;4893015;29;20040;-83
2021/12/29 05:00:38;;;;;;;6.80;5.25;;;;;;;8.47;99.80;98808.63;4901269;29;20390;-82
2021/12/29 05:03:08;;;;;;;5.75;5.00;;;;;;;8.48;100.00;98824.47;4908863;29;20036;-82
2021/12/29 05:05:41;;;;;;;7.43;5.25;;;;;;;8.47;99.97;98814.78;4893563;29;20063;-82
2021/12/29 05:08:25;;;;;;;7.60;5.18;;;;;;;8.46;99.63;98821.13;4893464;29;20035;-82
2021/12/29 05:10:57;;;;;;;7.22;5.30;;;;;;;8.48;99.63;98819.13;4894276;29;20024;-82
2021/12/29 05:13:31;;;;;;;6.22;4.50;;;;;;;8.48;100.00;98819.13;4893207;29;20032;-81
2021/12/29 05:16:02;;;;;;;7.82;4.43;;;;;;;8.45;100.00;98823.94;4901944;29;20905;-81
2021/12/29 05:18:35;;;;;;;5.20;4.43;;;;;;;8.44;99.75;98820.44;4892565;29;20039;-81
2021/12/29 05:21:07;;;;;;;5.63;3.92;;;;;;;8.43;99.26;98821.41;4908212;29;20047;-81
2021/12/29 05:23:37;;;;;;;5.43;3.70;;;;;;;8.43;99.62;98824.09;4908056;29;20497;-82
2021/12/29 05:26:10;;;;;;;6.55;3.70;;;;;;;8.43;99.60;98824.09;4893002;29;20079;-81
2021/12/29 05:28:42;;;;;;;4.82;4.07;;;;;;;8.44;99.26;98823.09;4892542;29;20533;-82
2021/12/29 05:31:14;;;;;;;6.57;4.13;;;;;;;8.43;99.34;98826.75;4892268;29;20052;-81
2021/12/29 05:33:44;;;;;;;5.55;4.07;;;;;;;8.43;99.26;98823.25;4893173;29;20032;-80
2021/12/29 05:36:15;;;;;;;5.53;4.40;;;;;;;8.44;99.40;98825.75;4907981;29;20572;-82
2021/12/29 05:38:47;;;;;;;6.60;4.00;;;;;;;8.42;99.08;98833.06;4892778;29;20052;-83
2021/12/29 05:41:19;;;;;;;4.93;3.75;;;;;;;8.44;99.09;98846.22;4908087;29;20975;-83
2021/12/29 05:43:52;;;;;;;7.40;4.38;;;;;;;8.45;98.98;98845.25;4907604;29;20061;-83
2021/12/29 05:46:25;;;;;;;5.82;4.15;;;;;;;8.43;99.19;98844.56;4892787;29;20047;-82
2021/12/29 05:48:56;;;;;;;6.93;3.90;;;;;;;8.42;99.17;98856.19;4892980;29;20047;-82
2021/12/29 05:51:28;;;;;;;6.43;4.00;;;;;;;8.46;98.93;98853.06;4907815;29;20119;-82
2021/12/29 05:54:01;;;;;;;7.13;4.15;;;;;;;8.49;99.11;98857.25;4907841;29;20024;-82
2021/12/29 05:56:34;;;;;;;7.90;3.92;;;;;;;8.45;99.13;98859.41;4892335;29;20043;-81
2021/12/29 05:59:07;;;;;;;5.13;3.90;;;;;;;8.44;99.08;98859.53;4908103;29;20054;-81
2021/12/29 06:01:39;;;;;;;6.07;3.85;;;;;;;8.46;99.05;98857.56;4892266;29;20064;-81
2021/12/29 06:04:11;;;;;;;4.65;3.47;;;;;;;8.44;98.89;98860.38;4907978;29;20104;-82
2021/12/29 06:06:44;;;;;;;6.70;4.30;;;;;;;8.44;98.56;98863.06;4892213;29;20556;-82
2021/12/29 06:09:17;;;;;;;4.93;4.15;;;;;;;8.43;98.63;98863.19;4892282;29;20024;-82
2021/12/29 06:11:49;;;;;;;6.28;3.83;;;;;;;8.43;99.17;98858.72;4898912;29;20040;-83
2021/12/29 06:14:21;;;;;;;6.93;3.95;;;;;;;8.44;98.93;98867.53;4891939;29;20117;-83
2021/12/29 06:16:54;;;;;;;4.57;3.67;;;;;;;8.43;99.05;98865.88;4891788;29;20032;-81
2021/12/29 06:19:30;;;;;;;5.47;3.63;;;;;;;8.41;98.79;98881.16;4908060;29;21064;-81
2021/12/29 06:22:03;;;;;;;5.15;3.70;;;;;;;8.42;98.83;98867.69;4891690;29;20087;-82
2021/12/29 06:24:35;;;;;;;5.32;4.45;;;;;;;8.41;98.44;98859.84;4906891;29;20032;-83
2021/12/29 06:27:10;;;;;;;7.78;4.13;;;;;;;8.41;98.67;98867.84;4892273;29;20046;-82
2021/12/29 06:29:44;;;;;;;5.75;3.78;;;;;;;8.42;98.61;98870.34;4891209;29;20060;-81
2021/12/29 06:32:16;;;;;;;4.47;3.97;;;;;;;8.44;98.00;98872.88;4906792;29;20075;-81
2021/12/29 06:34:49;;;;;;;5.90;3.95;;;;;;;8.40;97.82;98880.31;4907319;29;20036;-80
2021/12/29 06:37:23;;;;;;;4.68;3.80;;;;;;;8.42;97.76;98872.19;4892109;29;20425;-80
2021/12/29 06:39:57;;;;;;;4.75;3.83;;;;;;;8.42;98.04;98869.53;4891650;29;20059;-81
2021/12/29 06:42:31;;;;;;;4.35;3.42;;;;;;;8.44;97.91;98880.84;4906840;29;20099;-81
2021/12/29 06:45:03;;;;;;;4.63;3.88;;;;;;;8.43;97.70;98887.19;4891871;29;20478;-80
2021/12/29 06:47:36;;;;;;;5.72;4.65;;;;;;;8.39;97.33;98893.78;4891186;29;20039;-82
2021/12/29 06:50:08;;;;;;;5.47;3.72;;;;;;;8.40;97.66;98887.47;4891803;29;20028;-81
2021/12/29 06:52:42;;;;;;;7.18;3.92;;;;;;;8.38;97.46;98887.63;4906486;29;20039;-81
2021/12/29 06:55:16;;;;;;;6.28;3.88;;;;;;;8.41;97.88;98892.66;4891473;29;20036;-80
2021/12/29 06:57:49;;;;;;;6.45;3.80;;;;;;;8.42;97.59;98901.47;4891930;29;20067;-82
2021/12/29 07:00:23;;;;;;;7.07;4.07;;;;;;;8.39;97.47;98897.31;4891284;29;20028;-82
2021/12/29 07:02:57;;;;;;;5.50;4.07;;;;;;;8.40;97.25;98914.97;4891540;29;20693;-82
2021/12/29 07:05:30;;;;;;;6.00;3.50;;;;;;;8.41;97.28;98927.28;4891610;29;20043;-83
2021/12/29 07:08:03;;;;;;;5.38;3.92;;;;;;;8.41;97.78;98921.97;4891714;29;20048;-82
2021/12/29 07:10:40;;;;;;;5.70;3.90;;;;;;;8.41;97.39;98919.28;4890459;29;20092;-83
2021/12/29 07:13:14;;;;;;;11.63;4.40;;;;;;;8.41;97.37;98935.28;4890837;29;20064;-81
2021/12/29 07:15:48;;;;;;;6.43;3.95;;;;;;;8.40;97.64;98925.63;4891011;29;20043;-81
2021/12/29 07:18:21;;;;;;;4.93;3.85;;;;;;;8.41;97.47;98924.63;4891430;29;20038;-81
2021/12/29 07:20:53;;;;;;;7.43;4.00;;;;;;;8.39;97.56;98912.44;4890235;29;20034;-80
2021/12/29 07:23:28;;;;;;;5.68;3.58;;;;;;;8.43;97.71;98921.81;4890854;29;20040;-82
2021/12/29 07:26:01;;;;;;;6.22;4.13;;;;;;;8.40;97.20;98924.78;4906359;29;20032;-82
2021/12/29 07:28:33;;;;;;;4.68;3.83;;;;;;;8.43;97.15;98938.63;4890823;29;20035;-82
2021/12/29 07:31:08;;;;;;;8.05;4.03;;;;;;;8.42;97.27;98946.78;4905487;29;20055;-81
2021/12/29 07:33:42;;;;;;;5.50;3.72;;;;;;;8.41;96.81;98945.94;4891125;29;20043;-82
2021/12/29 07:36:17;;;;;;;6.47;4.00;;;;;;;8.41;97.21;98945.94;4906295;29;20032;-80
2021/12/29 07:38:49;;;;;;;6.90;4.07;;;;;;;8.38;97.31;98950.72;4891038;29;20032;-80
2021/12/29 07:41:23;;;;;;;6.43;3.97;;;;;;;8.39;96.96;98949.75;4890812;29;20047;-81
2021/12/29 07:43:58;;;;;;;8.15;3.78;;;;;;;8.38;96.80;98943.56;4891079;29;20039;-80
2021/12/29 07:46:33;;;;;;;4.35;3.53;;;;;;;8.40;96.85;98954.91;4905812;29;20055;-82
2021/12/29 07:49:05;;;;;;;6.40;3.88;;;;;;;8.41;96.96;98951.25;4890401;29;20099;-80
2021/12/29 07:51:39;;;;;;;5.10;3.85;;;;;;;8.39;97.00;98947.91;4890346;29;20039;-81
2021/12/29 07:54:13;;;;;;;6.82;4.32;;;;;;;8.38;97.10;98959.56;4905951;29;20043;-82
2021/12/29 07:56:43;;;;;;;7.13;4.00;;;;;;;8.40;96.66;98962.06;4906719;29;20032;-80
2021/12/29 07:59:18;;;;;;;7.80;4.28;;;;;;;8.39;97.39;98955.06;4890933;29;20402;-81
2021/12/29 08:01:52;;;;;;;6.22;4.07;;;;;;;8.41;97.64;98969.06;4890624;29;20069;-81
2021/12/29 08:04:26;;;;;;;9.77;4.20;;;;;;;8.39;97.33;98976.38;4906655;29;20028;-80
2021/12/29 08:06:59;;;;;;;7.95;4.38;;;;;;;8.41;97.50;98969.06;4890254;29;20059;-80
2021/12/29 08:09:32;;;;;;;9.35;4.75;;;;;;;8.40;97.80;98972.72;4890424;29;20043;-81
2021/12/29 08:12:05;;;;;;;7.65;4.60;;;;;;;8.40;97.94;98978.88;4890165;29;20035;-82
2021/12/29 08:14:36;;;;;;;7.43;4.60;;;;;;;8.39;97.90;98981.69;4904977;29;20032;-81
2021/12/29 08:17:07;;;;;;;8.05;4.65;;;;;;;8.42;97.89;98979.59;4903916;29;20056;-81
2021/12/29 08:19:37;;;;;;;7.93;4.78;;;;;;;8.43;97.82;98972.44;4889774;29;20056;-81
2021/12/29 08:22:08;;;;;;;7.28;5.00;;;;;;;8.42;97.68;98968.91;4903882;29;20119;-82
2021/12/29 08:24:39;;;;;;;8.77;5.22;;;;;;;8.43;97.53;98972.44;4889857;29;20032;-81
2021/12/29 08:27:11;;;;;;;6.95;4.85;;;;;;;8.44;97.82;98982.94;4890019;29;20034;-83
2021/12/29 08:29:44;;;;;;;10.50;4.97;;;;;;;8.45;97.76;98984.59;4889596;29;20641;-82
2021/12/29 08:32:20;;;;;;;7.75;5.07;;;;;;;8.46;98.09;98974.78;4889325;29;20048;-81
2021/12/29 08:35:00;;;;;;;8.27;5.13;;;;;;;8.45;97.87;98973.13;4920814;29;20450;-81
2021/12/29 08:37:35;;;;;;;9.40;5.55;;;;;;;8.44;97.92;98982.94;4904526;29;20024;-82
2021/12/29 08:40:09;;;;;;;6.88;5.10;;;;;;;8.45;98.47;98987.28;4898237;29;20410;-82
2021/12/29 08:42:40;;;;;;;9.00;4.88;;;;;;;8.47;98.43;98987.13;4889832;29;20122;-81
2021/12/29 08:45:14;;;;;;;7.65;5.03;;;;;;;8.48;98.02;98989.63;4892243;29;20444;-81
2021/12/29 08:47:48;;;;;;;10.75;5.18;;;;;;;8.45;98.28;98995.25;4908751;29;20098;-83
2021/12/29 08:50:23;;;;;;;8.43;4.85;;;;;;;8.48;97.96;99007.44;4892832;29;20087;-81
2021/12/29 08:52:56;;;;;;;9.38;4.35;;;;;;;8.49;97.94;99007.31;4908881;29;20045;-82
2021/12/29 08:55:29;;;;;;;6.20;3.42;;;;;;;8.50;98.15;98998.31;4893591;29;20043;-82
2021/12/29 08:58:01;;;;;;;7.50;3.75;;;;;;;8.50;97.93;98994.81;4908433;29;20032;-81
2021/12/29 09:00:33;;;;;;;6.35;3.83;;;;;;;8.49;98.17;98998.47;4893151;29;20051;-82
2021/12/29 09:03:06;;;;;;;6.45;3.70;;;;;;;8.48;98.06;98996.78;4893684;29;20095;-82
2021/12/29 09:05:38;;;;;;;6.55;3.40;;;;;;;8.48;97.82;98994.13;4893440;29;20030;-81
2021/12/29 09:08:09;;;;;;;5.13;3.67;;;;;;;8.49;97.78;98982.47;4893091;29;20038;-80
2021/12/29 09:10:41;;;;;;;6.47;3.30;;;;;;;8.48;98.15;98986.97;4893273;29;20024;-80
2021/12/29 09:13:14;;;;;;;7.57;3.30;;;;;;;8.48;98.07;98991.47;4908706;29;20032;-81
2021/12/29 09:15:49;;;;;;;8.02;3.53;;;;;;;8.48;98.45;98986.97;4893078;29;20027;-80
2021/12/29 09:18:24;;;;;;;5.28;2.95;;;;;;;8.50;98.37;98985.00;4892899;29;20076;-81
2021/12/29 09:20:56;;;;;;;5.00;3.10;;;;;;;8.51;98.21;98978.72;4892376;29;20036;-82
2021/12/29 09:23:27;;;;;;;6.05;3.53;;;;;;;8.50;98.79;98977.00;4892977;29;20032;-80
2021/12/29 09:26:01;;;;;;;4.63;2.85;;;;;;;8.50;98.22;98968.19;4908040;29;20036;-81
2021/12/29 09:28:32;;;;;;;7.00;3.03;;;;;;;8.52;98.68;98979.56;4892947;29;20119;-80
2021/12/29 09:31:04;;;;;;;5.35;2.90;;;;;;;8.51;97.56;98976.06;4892402;29;20051;-80
2021/12/29 09:33:35;;;;;;;7.78;2.78;;;;;;;8.48;98.63;98973.66;4893342;29;20046;-81
2021/12/29 09:36:06;;;;;;;3.85;2.42;;;;;;;8.49;97.99;98980.66;4908262;29;20759;-81
2021/12/29 09:38:38;;;;;;;3.53;2.30;;;;;;;8.50;98.56;98981.50;4892587;29;20123;-80
2021/12/29 09:41:10;;;;;;;4.25;2.60;;;;;;;8.51;98.67;98989.38;4907872;29;20047;-80
2021/12/29 09:43:44;;;;;;;7.57;2.53;;;;;;;8.52;98.82;98988.38;4891756;29;20068;-81
2021/12/29 09:46:18;;;;;;;5.75;2.50;;;;;;;8.54;98.37;98990.06;4892605;29;20040;-81
2021/12/29 09:48:53;;;;;;;4.50;2.67;;;;;;;8.55;98.35;98994.41;4892854;29;20042;-81
2021/12/29 09:51:25;;;;;;;4.93;2.70;;;;;;;8.54;98.64;98996.22;4891994;29;20043;-80
2021/12/29 09:53:57;;;;;;;7.03;2.38;;;;;;;8.56;98.61;98996.06;4907639;29;20585;-81
2021/12/29 09:56:29;;;;;;;5.50;2.30;;;;;;;8.57;98.19;98989.75;4907200;29;20035;-81
2021/12/29 09:59:03;;;;;;;5.28;2.70;;;;;;;8.56;98.62;98975.59;4892121;29;20386;-82
2021/12/29 10:01:36;;;;;;;4.57;2.35;;;;;;;8.57;98.78;98982.59;4892534;29;20052;-80
2021/12/29 10:04:07;;;;;;;5.22;2.42;;;;;;;8.59;98.33;98993.13;4908304;29;20036;-82
2021/12/29 10:06:40;;;;;;;4.47;2.30;;;;;;;8.56;98.67;98985.41;4891458;29;20377;-80
2021/12/29 10:09:16;;;;;;;5.32;2.53;;;;;;;8.55;98.75;98971.25;4892239;29;20067;-81
2021/12/29 10:11:48;;;;;;;6.05;3.20;;;;;;;8.55;98.29;98973.94;4907685;29;20052;-81
2021/12/29 10:14:23;;;;;;;6.15;2.92;;;;;;;8.56;98.42;98961.44;4892148;29;20398;-80
2021/12/29 10:16:56;;;;;;;4.85;2.90;;;;;;;8.54;98.45;98972.25;4892295;29;20043;-82
2021/12/29 10:19:28;;;;;;;6.10;3.63;;;;;;;8.54;98.05;98974.91;4907289;29;20035;-81
2021/12/29 10:22:01;;;;;;;5.90;2.65;;;;;;;8.55;98.27;98970.41;4891937;29;20036;-81
2021/12/29 10:24:36;;;;;;;6.40;2.40;;;;;;;8.55;98.04;98962.44;4890451;29;20115;-82
2021/12/29 10:27:07;;;;;;;4.65;2.30;;;;;;;8.57;98.01;98952.47;4890486;29;20038;-81
2021/12/29 10:29:44;;;;;;;4.65;2.22;;;;;;;8.57;98.41;98941.81;4890596;29;20115;-81
2021/12/29 10:32:22;;;;;;;6.95;2.50;;;;;;;8.58;98.22;98932.81;4899642;29;20051;-81
2021/12/29 10:34:58;;;;;;;5.82;2.55;;;;;;;8.58;98.24;98925.66;4890124;29;20100;-82
2021/12/29 10:37:31;;;;;;;5.15;2.40;;;;;;;8.59;98.24;98924.66;4891739;29;20051;-82
2021/12/29 10:40:06;;;;;;;6.43;2.28;;;;;;;8.60;97.83;98925.50;4905988;29;20084;-82
2021/12/29 10:42:41;;;;;;;3.90;2.00;;;;;;;8.63;98.19;98942.03;4906074;29;20044;-81
2021/12/29 10:45:13;;;;;;;6.10;2.40;;;;;;;8.66;98.16;98932.91;4891596;29;20031;-81
2021/12/29 10:47:47;;;;;;;5.75;2.22;;;;;;;8.66;97.60;98940.91;4905278;29;20095;-81
2021/12/29 10:50:20;;;;;;;5.00;2.30;;;;;;;8.68;97.47;98946.91;4906824;29;20047;-82
2021/12/29 10:52:56;;;;;;;4.22;2.08;;;;;;;8.69;97.54;98935.25;4906684;29;20031;-80
2021/12/29 10:55:31;;;;;;;6.45;1.92;;;;;;;8.72;97.82;98933.13;4890357;29;20055;-81
2021/12/29 10:58:10;;;;;;;4.22;2.05;;;;;;;8.72;97.82;98933.13;4891896;29;20056;-80
2021/12/29 11:00:44;;;;;;;3.70;1.88;;;;;;;8.73;98.09;98939.28;4890886;29;20059;-81
2021/12/29 11:03:22;;;;;;;4.22;2.00;;;;;;;8.72;98.22;98935.78;4906177;29;20174;-81
2021/12/29 11:05:59;;;;;;;3.90;2.00;;;;;;;8.73;98.17;98939.28;4891814;29;20036;-82
2021/12/29 11:08:54;;;;;;;5.10;1.55;;;;;;;8.70;97.94;98937.78;4906340;29;20413;-80
2021/12/29 11:11:42;;;;;;;5.07;1.85;;;;;;;8.75;97.62;98934.66;4904270;29;20034;-82
2021/12/29 11:14:21;;;;;;;3.03;1.85;;;;;;;8.73;97.31;98928.63;4890416;29;20028;-80
2021/12/29 11:17:00;;;;;;;3.72;1.70;;;;;;;8.75;97.55;98940.81;4890332;29;20387;-82
2021/12/29 11:19:31;;;;;;;3.65;1.60;;;;;;;8.75;97.29;98956.81;4905779;29;20087;-81
2021/12/29 11:22:16;;;;;;;3.88;2.10;;;;;;;8.74;97.76;98944.47;4889863;29;20032;-80
2021/12/29 11:24:53;;;;;;;3.60;1.80;;;;;;;8.74;97.87;98932.97;4906176;29;20042;-80
2021/12/29 11:27:26;;;;;;;3.60;2.13;;;;;;;8.75;97.71;98924.81;4906102;29;20039;-81
2021/12/29 11:30:03;;;;;;;4.65;1.95;;;;;;;8.77;97.92;98908.69;4888612;29;20028;-80
2021/12/29 11:32:36;;;;;;;5.63;3.00;;;;;;;8.78;98.19;98919.19;4904853;29;20043;-82
2021/12/29 11:35:14;;;;;;;6.38;2.63;;;;;;;8.78;97.59;98924.53;4890084;29;20608;-82
2021/12/29 11:37:53;;;;;;;5.00;2.58;;;;;;;8.79;98.02;98920.88;4905995;29;20055;-81
2021/12/29 11:40:27;;;;;;;4.82;2.00;;;;;;;8.80;98.22;98933.19;4890261;29;20032;-81
2021/12/29 11:42:58;;;;;;;3.60;1.60;;;;;;;8.82;97.90;98935.72;4889833;29;20417;-80
2021/12/29 11:45:30;;;;;;;3.67;1.58;;;;;;;8.84;98.04;98923.91;4887712;29;20426;-82
2021/12/29 11:48:00;;;;;;;5.18;1.70;;;;;;;8.82;97.99;98914.38;4903950;29;20047;-82
2021/12/29 11:51:08;;;;;;;4.63;1.67;;;;;;;8.83;98.01;98914.25;4889986;29;20036;-80
2021/12/29 11:57:57;;;;;;;5.15;1.98;;;;;;;8.85;98.39;98908.75;4807442;29;20104;-82
2021/12/29 12:14:49;;;;;;;;;;;;;;;;;;;;;
2021/12/29 12:18:06;;;;;;;;;;;;;;;;;;;;;
2021/12/29 12:21:11;;;;;;;2.03;1.10;;;;;;;8.90;98.47;98905.63;4822007;29;20118;-84
2021/12/29 12:27:18;;;;;;;4.97;1.50;;;;;;;8.88;98.34;98904.94;4851356;29;20048;-83
2021/12/29 12:30:05;;;;;;;2.05;1.30;;;;;;;8.87;98.57;98900.59;4861244;29;20052;-83
2021/12/29 12:32:44;;;;;;;3.95;1.30;;;;;;;8.87;98.24;98889.94;4907887;29;20051;-81